KBYI

Details ICAO KBYI
Name BURLEY MUNI
Region United States
Timezone America/Boise (UTC-7.0)
Plans Departing 4
Arriving 4
Stats Elevation 4,150 ft / 1,265 m (AMSL)
Location 42.542608° -113.771545°
Runways 2
Magnetic Variation 12.383° E
Sunrise 2017-12-18 15:01:27 UTC / 2017-12-18 08:01:27 Local
Sunset 2017-12-19 00:04:57 UTC / 2017-12-18 17:04:57 Local
Advertisement - Login to hide

Runways

ID Width Length Bearing (true) Bearing (mag) Surface Threshold Offset Overrun Length
02 80 ft / 24 m 4,093 ft / 1,248 m 37.30° 24.92° Asphalt 620 ft / 189 m 0 ft / 0 m
06 75 ft / 23 m 4,057 ft / 1,237 m 78.79° 66.41° Asphalt 800 ft / 244 m 0 ft / 0 m
20 80 ft / 24 m 4,093 ft / 1,248 m 217.30° 204.92° Asphalt 300 ft / 91 m 0 ft / 0 m
24 75 ft / 23 m 4,057 ft / 1,237 m 258.80° 246.42° Asphalt 0 ft / 0 m 0 ft / 0 m

Map

Weather


0- 5 10 15 20 25 30 35+ Temperature / ° C

Clouds and Precipitation
Forecast for 2017-12-18 18:00 UTC. Updated 2 hours ago

Ground ~20,000 ft ~40,000 ft Winds

METAR

KBYI 181853Z AUTO 22007KT 10SM OVC050 05/M06 A3018 RMK AO2 SLP232 T00501056

TAF

KBYI 181721Z 1818/1918 VRB05KT P6SM SCT015 OVC035 FM182000 25010KT P6SM SCT035 BKN110 FM190200 18006KT P6SM BKN120

Frequencies

Recorded 135.57 MHz ASOS
Approach 126.70 MHz TWIN FALLS APP/DEP
Unicom 122.90 MHz CTAF
Warning: Do not use this data for real-world aviation or navigation. No guarantee of current accuracy is given.